sensor_id;sensor_type;location;lat;lon;timestamp;P1;durP1;ratioP1;P2;durP2;ratioP2
62401;SDS011;48440;51.224;22.506;2022-12-05T00:01:32;17.55;;;9.63;;
62401;SDS011;48440;51.224;22.506;2022-12-05T00:04:08;23.73;;;10.73;;
62401;SDS011;48440;51.224;22.506;2022-12-05T00:06:35;20.48;;;9.60;;
62401;SDS011;48440;51.224;22.506;2022-12-05T00:09:03;15.52;;;9.05;;
62401;SDS011;48440;51.224;22.506;2022-12-05T00:11:30;19.95;;;9.18;;
62401;SDS011;48440;51.224;22.506;2022-12-05T00:13:59;20.05;;;9.43;;
62401;SDS011;48440;51.224;22.506;2022-12-05T00:16:25;21.92;;;9.27;;
62401;SDS011;48440;51.224;22.506;2022-12-05T00:18:53;20.92;;;9.60;;
62401;SDS011;48440;51.224;22.506;2022-12-05T00:21:23;18.63;;;9.15;;
62401;SDS011;48440;51.224;22.506;2022-12-05T00:23:51;21.17;;;9.32;;
62401;SDS011;48440;51.224;22.506;2022-12-05T00:26:18;26.60;;;10.68;;
62401;SDS011;48440;51.224;22.506;2022-12-05T00:28:44;18.75;;;9.68;;
62401;SDS011;48440;51.224;22.506;2022-12-05T00:31:11;20.67;;;9.18;;
62401;SDS011;48440;51.224;22.506;2022-12-05T00:33:41;17.35;;;8.90;;
62401;SDS011;48440;51.224;22.506;2022-12-05T00:36:09;20.88;;;9.90;;
62401;SDS011;48440;51.224;22.506;2022-12-05T00:38:43;18.33;;;9.07;;
62401;SDS011;48440;51.224;22.506;2022-12-05T00:41:10;20.13;;;9.25;;
62401;SDS011;48440;51.224;22.506;2022-12-05T00:43:37;19.60;;;9.55;;
62401;SDS011;48440;51.224;22.506;2022-12-05T00:46:04;25.05;;;10.38;;
62401;SDS011;48440;51.224;22.506;2022-12-05T00:48:32;22.98;;;10.73;;
62401;SDS011;48440;51.224;22.506;2022-12-05T00:51:06;20.02;;;9.50;;
62401;SDS011;48440;51.224;22.506;2022-12-05T00:53:39;14.70;;;7.75;;
62401;SDS011;48440;51.224;22.506;2022-12-05T00:56:06;16.52;;;8.25;;
62401;SDS011;48440;51.224;22.506;2022-12-05T00:58:34;20.13;;;9.35;;
62401;SDS011;48440;51.224;22.506;2022-12-05T01:01:04;15.38;;;7.60;;
62401;SDS011;48440;51.224;22.506;2022-12-05T01:05:59;17.83;;;8.60;;
62401;SDS011;48440;51.224;22.506;2022-12-05T01:08:25;18.00;;;9.52;;
62401;SDS011;48440;51.224;22.506;2022-12-05T01:10:55;19.15;;;9.15;;
62401;SDS011;48440;51.224;22.506;2022-12-05T01:13:21;17.45;;;9.10;;
62401;SDS011;48440;51.224;22.506;2022-12-05T01:15:48;18.95;;;8.52;;
62401;SDS011;48440;51.224;22.506;2022-12-05T01:18:14;18.98;;;8.85;;
62401;SDS011;48440;51.224;22.506;2022-12-05T01:20:40;19.95;;;9.45;;
62401;SDS011;48440;51.224;22.506;2022-12-05T01:23:06;21.17;;;9.18;;
62401;SDS011;48440;51.224;22.506;2022-12-05T01:25:32;17.38;;;9.68;;
62401;SDS011;48440;51.224;22.506;2022-12-05T01:27:58;19.63;;;9.73;;
62401;SDS011;48440;51.224;22.506;2022-12-05T01:30:23;19.23;;;8.90;;
62401;SDS011;48440;51.224;22.506;2022-12-05T01:32:49;21.15;;;10.30;;
62401;SDS011;48440;51.224;22.506;2022-12-05T01:35:14;18.70;;;9.90;;
62401;SDS011;48440;51.224;22.506;2022-12-05T01:37:40;20.33;;;9.43;;
62401;SDS011;48440;51.224;22.506;2022-12-05T01:40:06;21.15;;;10.02;;
62401;SDS011;48440;51.224;22.506;2022-12-05T01:42:32;20.30;;;9.93;;
62401;SDS011;48440;51.224;22.506;2022-12-05T01:45:21;20.23;;;9.85;;
62401;SDS011;48440;51.224;22.506;2022-12-05T01:48:14;20.45;;;9.55;;
62401;SDS011;48440;51.224;22.506;2022-12-05T01:50:44;18.45;;;8.95;;
62401;SDS011;48440;51.224;22.506;2022-12-05T01:53:11;22.02;;;10.52;;
62401;SDS011;48440;51.224;22.506;2022-12-05T01:55:37;22.10;;;9.70;;
62401;SDS011;48440;51.224;22.506;2022-12-05T01:58:04;19.08;;;9.23;;
62401;SDS011;48440;51.224;22.506;2022-12-05T02:00:32;20.20;;;9.40;;
62401;SDS011;48440;51.224;22.506;2022-12-05T02:02:58;18.92;;;9.30;;
62401;SDS011;48440;51.224;22.506;2022-12-05T02:05:29;20.27;;;10.18;;
62401;SDS011;48440;51.224;22.506;2022-12-05T02:07:57;17.95;;;9.65;;
62401;SDS011;48440;51.224;22.506;2022-12-05T02:10:25;20.63;;;10.23;;
62401;SDS011;48440;51.224;22.506;2022-12-05T02:12:54;18.58;;;9.77;;
62401;SDS011;48440;51.224;22.506;2022-12-05T02:24:09;19.45;;;9.25;;
62401;SDS011;48440;51.224;22.506;2022-12-05T02:37:36;20.85;;;9.40;;
62401;SDS011;48440;51.224;22.506;2022-12-05T02:40:09;20.85;;;10.52;;
62401;SDS011;48440;51.224;22.506;2022-12-05T02:45:35;22.63;;;10.35;;
62401;SDS011;48440;51.224;22.506;2022-12-05T02:48:03;22.35;;;10.65;;
62401;SDS011;48440;51.224;22.506;2022-12-05T02:50:32;21.90;;;10.10;;
62401;SDS011;48440;51.224;22.506;2022-12-05T02:53:06;21.35;;;10.52;;
62401;SDS011;48440;51.224;22.506;2022-12-05T02:55:34;22.90;;;11.70;;
62401;SDS011;48440;51.224;22.506;2022-12-05T02:58:07;20.55;;;10.57;;
62401;SDS011;48440;51.224;22.506;2022-12-05T03:00:55;19.02;;;10.00;;
62401;SDS011;48440;51.224;22.506;2022-12-05T03:03:22;17.58;;;9.50;;
62401;SDS011;48440;51.224;22.506;2022-12-05T03:05:57;24.77;;;10.00;;
62401;SDS011;48440;51.224;22.506;2022-12-05T03:08:30;22.85;;;10.65;;
62401;SDS011;48440;51.224;22.506;2022-12-05T03:11:01;23.17;;;10.32;;
62401;SDS011;48440;51.224;22.506;2022-12-05T03:13:29;25.13;;;11.35;;
62401;SDS011;48440;51.224;22.506;2022-12-05T03:16:00;23.58;;;11.10;;
62401;SDS011;48440;51.224;22.506;2022-12-05T03:18:31;25.40;;;11.68;;
62401;SDS011;48440;51.224;22.506;2022-12-05T03:21:26;24.13;;;11.60;;
62401;SDS011;48440;51.224;22.506;2022-12-05T03:24:02;21.02;;;11.13;;
62401;SDS011;48440;51.224;22.506;2022-12-05T03:26:35;24.70;;;11.75;;
62401;SDS011;48440;51.224;22.506;2022-12-05T03:29:18;22.65;;;11.35;;
62401;SDS011;48440;51.224;22.506;2022-12-05T03:31:53;24.38;;;12.35;;
62401;SDS011;48440;51.224;22.506;2022-12-05T03:34:28;23.88;;;11.25;;
62401;SDS011;48440;51.224;22.506;2022-12-05T03:37:03;24.35;;;11.80;;
62401;SDS011;48440;51.224;22.506;2022-12-05T03:39:34;22.40;;;12.18;;
62401;SDS011;48440;51.224;22.506;2022-12-05T03:42:09;24.02;;;11.20;;
62401;SDS011;48440;51.224;22.506;2022-12-05T03:44:43;23.25;;;11.88;;
62401;SDS011;48440;51.224;22.506;2022-12-05T03:47:27;22.65;;;10.52;;
62401;SDS011;48440;51.224;22.506;2022-12-05T03:50:00;24.42;;;10.70;;
62401;SDS011;48440;51.224;22.506;2022-12-05T03:52:32;25.33;;;11.93;;
62401;SDS011;48440;51.224;22.506;2022-12-05T03:55:04;20.83;;;10.73;;
62401;SDS011;48440;51.224;22.506;2022-12-05T03:57:35;23.45;;;10.60;;
62401;SDS011;48440;51.224;22.506;2022-12-05T04:08:00;21.83;;;10.73;;
62401;SDS011;48440;51.224;22.506;2022-12-05T04:10:32;25.30;;;11.05;;
62401;SDS011;48440;51.224;22.506;2022-12-05T04:13:13;27.38;;;11.93;;
62401;SDS011;48440;51.224;22.506;2022-12-05T04:18:38;25.85;;;11.48;;
62401;SDS011;48440;51.224;22.506;2022-12-05T04:21:24;26.80;;;12.68;;
62401;SDS011;48440;51.224;22.506;2022-12-05T04:24:12;21.30;;;11.15;;
62401;SDS011;48440;51.224;22.506;2022-12-05T04:30:03;21.42;;;11.18;;
62401;SDS011;48440;51.224;22.506;2022-12-05T04:35:18;31.15;;;13.05;;
62401;SDS011;48440;51.224;22.506;2022-12-05T04:37:48;25.25;;;12.20;;
62401;SDS011;48440;51.224;22.506;2022-12-05T04:40:39;29.60;;;12.80;;
62401;SDS011;48440;51.224;22.506;2022-12-05T04:43:09;23.60;;;12.00;;
62401;SDS011;48440;51.224;22.506;2022-12-05T04:45:36;30.52;;;12.52;;
62401;SDS011;48440;51.224;22.506;2022-12-05T04:48:06;29.00;;;13.13;;
62401;SDS011;48440;51.224;22.506;2022-12-05T04:50:37;29.05;;;13.35;;
62401;SDS011;48440;51.224;22.506;2022-12-05T04:53:04;26.92;;;13.10;;
62401;SDS011;48440;51.224;22.506;2022-12-05T04:55:31;31.48;;;12.85;;
62401;SDS011;48440;51.224;22.506;2022-12-05T04:58:10;24.88;;;11.70;;
62401;SDS011;48440;51.224;22.506;2022-12-05T05:03:24;26.95;;;11.85;;
62401;SDS011;48440;51.224;22.506;2022-12-05T05:06:04;27.67;;;13.32;;
62401;SDS011;48440;51.224;22.506;2022-12-05T05:08:30;29.02;;;12.82;;
62401;SDS011;48440;51.224;22.506;2022-12-05T05:13:35;27.40;;;12.82;;
62401;SDS011;48440;51.224;22.506;2022-12-05T05:16:00;31.30;;;12.70;;
62401;SDS011;48440;51.224;22.506;2022-12-05T05:18:26;26.95;;;12.45;;
62401;SDS011;48440;51.224;22.506;2022-12-05T05:20:51;27.00;;;12.25;;
62401;SDS011;48440;51.224;22.506;2022-12-05T05:23:17;23.95;;;12.45;;
62401;SDS011;48440;51.224;22.506;2022-12-05T05:25:42;30.67;;;12.73;;
62401;SDS011;48440;51.224;22.506;2022-12-05T05:28:08;30.80;;;13.85;;
62401;SDS011;48440;51.224;22.506;2022-12-05T05:30:33;32.90;;;13.88;;
62401;SDS011;48440;51.224;22.506;2022-12-05T05:32:59;27.27;;;12.57;;
62401;SDS011;48440;51.224;22.506;2022-12-05T05:35:24;28.52;;;12.80;;
62401;SDS011;48440;51.224;22.506;2022-12-05T05:37:50;29.92;;;13.10;;
62401;SDS011;48440;51.224;22.506;2022-12-05T05:40:15;28.85;;;12.85;;
62401;SDS011;48440;51.224;22.506;2022-12-05T05:42:42;31.90;;;12.25;;
62401;SDS011;48440;51.224;22.506;2022-12-05T05:45:12;29.15;;;13.05;;
62401;SDS011;48440;51.224;22.506;2022-12-05T05:47:38;29.83;;;12.57;;
62401;SDS011;48440;51.224;22.506;2022-12-05T05:50:04;32.08;;;13.65;;
62401;SDS011;48440;51.224;22.506;2022-12-05T05:52:32;28.58;;;14.05;;
62401;SDS011;48440;51.224;22.506;2022-12-05T05:54:58;31.52;;;13.98;;
62401;SDS011;48440;51.224;22.506;2022-12-05T05:57:24;31.73;;;13.07;;
62401;SDS011;48440;51.224;22.506;2022-12-05T05:59:50;30.92;;;14.77;;
62401;SDS011;48440;51.224;22.506;2022-12-05T06:02:16;29.70;;;13.65;;
62401;SDS011;48440;51.224;22.506;2022-12-05T06:04:41;34.80;;;13.63;;
62401;SDS011;48440;51.224;22.506;2022-12-05T06:07:07;29.45;;;13.18;;
62401;SDS011;48440;51.224;22.506;2022-12-05T06:09:32;32.22;;;13.32;;
62401;SDS011;48440;51.224;22.506;2022-12-05T06:11:58;31.80;;;13.95;;
62401;SDS011;48440;51.224;22.506;2022-12-05T06:14:23;29.90;;;13.57;;
62401;SDS011;48440;51.224;22.506;2022-12-05T06:16:49;32.15;;;14.25;;
62401;SDS011;48440;51.224;22.506;2022-12-05T06:19:14;30.23;;;14.05;;
62401;SDS011;48440;51.224;22.506;2022-12-05T06:21:40;30.38;;;13.80;;
62401;SDS011;48440;51.224;22.506;2022-12-05T06:24:05;30.33;;;12.93;;
62401;SDS011;48440;51.224;22.506;2022-12-05T06:26:31;32.88;;;13.60;;
62401;SDS011;48440;51.224;22.506;2022-12-05T06:28:57;28.73;;;13.95;;
62401;SDS011;48440;51.224;22.506;2022-12-05T06:31:22;29.77;;;14.10;;
62401;SDS011;48440;51.224;22.506;2022-12-05T06:33:52;32.47;;;14.75;;
62401;SDS011;48440;51.224;22.506;2022-12-05T06:36:19;29.10;;;13.30;;
62401;SDS011;48440;51.224;22.506;2022-12-05T06:38:48;26.83;;;12.93;;
62401;SDS011;48440;51.224;22.506;2022-12-05T06:41:14;37.13;;;14.40;;
62401;SDS011;48440;51.224;22.506;2022-12-05T06:43:42;30.38;;;14.55;;
62401;SDS011;48440;51.224;22.506;2022-12-05T06:46:08;37.60;;;14.23;;
62401;SDS011;48440;51.224;22.506;2022-12-05T06:48:35;34.40;;;13.68;;
62401;SDS011;48440;51.224;22.506;2022-12-05T06:51:01;36.40;;;14.80;;
62401;SDS011;48440;51.224;22.506;2022-12-05T06:53:31;33.83;;;14.50;;
62401;SDS011;48440;51.224;22.506;2022-12-05T06:55:57;34.88;;;15.35;;
62401;SDS011;48440;51.224;22.506;2022-12-05T06:58:24;34.13;;;15.70;;
62401;SDS011;48440;51.224;22.506;2022-12-05T07:00:50;34.88;;;13.93;;
62401;SDS011;48440;51.224;22.506;2022-12-05T07:03:35;35.45;;;15.13;;
62401;SDS011;48440;51.224;22.506;2022-12-05T07:06:01;34.35;;;15.95;;
62401;SDS011;48440;51.224;22.506;2022-12-05T07:08:28;35.35;;;15.20;;
62401;SDS011;48440;51.224;22.506;2022-12-05T07:10:53;38.95;;;15.65;;
62401;SDS011;48440;51.224;22.506;2022-12-05T07:13:19;36.83;;;15.48;;
62401;SDS011;48440;51.224;22.506;2022-12-05T07:15:45;31.92;;;14.02;;
62401;SDS011;48440;51.224;22.506;2022-12-05T07:18:14;36.92;;;15.13;;
62401;SDS011;48440;51.224;22.506;2022-12-05T07:20:41;38.83;;;15.50;;
62401;SDS011;48440;51.224;22.506;2022-12-05T07:23:07;38.35;;;15.77;;
62401;SDS011;48440;51.224;22.506;2022-12-05T07:25:33;39.78;;;16.08;;
62401;SDS011;48440;51.224;22.506;2022-12-05T07:27:58;34.95;;;14.40;;
62401;SDS011;48440;51.224;22.506;2022-12-05T07:30:24;34.97;;;14.30;;
62401;SDS011;48440;51.224;22.506;2022-12-05T07:32:49;38.50;;;16.00;;
62401;SDS011;48440;51.224;22.506;2022-12-05T07:35:15;34.55;;;14.38;;
62401;SDS011;48440;51.224;22.506;2022-12-05T07:37:40;40.17;;;15.48;;
62401;SDS011;48440;51.224;22.506;2022-12-05T07:40:06;33.83;;;14.38;;
62401;SDS011;48440;51.224;22.506;2022-12-05T07:42:32;31.30;;;15.05;;
62401;SDS011;48440;51.224;22.506;2022-12-05T07:44:57;36.70;;;15.93;;
62401;SDS011;48440;51.224;22.506;2022-12-05T07:47:23;34.45;;;14.77;;
62401;SDS011;48440;51.224;22.506;2022-12-05T07:49:48;33.90;;;15.35;;
62401;SDS011;48440;51.224;22.506;2022-12-05T07:52:14;31.95;;;14.70;;
62401;SDS011;48440;51.224;22.506;2022-12-05T07:54:39;32.53;;;14.90;;
62401;SDS011;48440;51.224;22.506;2022-12-05T07:57:05;34.33;;;14.48;;
62401;SDS011;48440;51.224;22.506;2022-12-05T07:59:30;38.30;;;14.95;;
62401;SDS011;48440;51.224;22.506;2022-12-05T08:01:56;42.42;;;16.63;;
62401;SDS011;48440;51.224;22.506;2022-12-05T08:04:21;32.67;;;15.45;;
62401;SDS011;48440;51.224;22.506;2022-12-05T08:06:47;35.60;;;14.80;;
62401;SDS011;48440;51.224;22.506;2022-12-05T08:09:12;34.47;;;15.02;;
62401;SDS011;48440;51.224;22.506;2022-12-05T08:11:38;32.80;;;14.93;;
62401;SDS011;48440;51.224;22.506;2022-12-05T08:14:04;40.58;;;14.90;;
62401;SDS011;48440;51.224;22.506;2022-12-05T08:16:30;38.92;;;16.50;;
62401;SDS011;48440;51.224;22.506;2022-12-05T08:18:57;37.83;;;15.20;;
62401;SDS011;48440;51.224;22.506;2022-12-05T08:21:28;36.80;;;15.65;;
62401;SDS011;48440;51.224;22.506;2022-12-05T08:23:54;42.45;;;17.02;;
62401;SDS011;48440;51.224;22.506;2022-12-05T08:26:24;35.17;;;15.45;;
62401;SDS011;48440;51.224;22.506;2022-12-05T08:28:52;38.08;;;16.35;;
62401;SDS011;48440;51.224;22.506;2022-12-05T08:31:19;36.60;;;16.92;;
62401;SDS011;48440;51.224;22.506;2022-12-05T08:33:47;39.38;;;17.33;;
62401;SDS011;48440;51.224;22.506;2022-12-05T08:36:14;36.58;;;16.55;;
62401;SDS011;48440;51.224;22.506;2022-12-05T08:38:40;46.47;;;18.52;;
62401;SDS011;48440;51.224;22.506;2022-12-05T08:41:07;35.92;;;17.23;;
62401;SDS011;48440;51.224;22.506;2022-12-05T08:43:35;39.33;;;17.02;;
62401;SDS011;48440;51.224;22.506;2022-12-05T08:46:00;36.92;;;16.67;;
62401;SDS011;48440;51.224;22.506;2022-12-05T08:48:27;39.58;;;17.50;;
62401;SDS011;48440;51.224;22.506;2022-12-05T08:50:53;39.28;;;17.30;;
62401;SDS011;48440;51.224;22.506;2022-12-05T08:53:19;40.83;;;17.50;;
62401;SDS011;48440;51.224;22.506;2022-12-05T08:55:45;42.38;;;17.88;;
62401;SDS011;48440;51.224;22.506;2022-12-05T08:58:10;39.75;;;17.67;;
62401;SDS011;48440;51.224;22.506;2022-12-05T09:00:37;38.90;;;16.02;;
62401;SDS011;48440;51.224;22.506;2022-12-05T09:03:03;38.55;;;17.42;;
62401;SDS011;48440;51.224;22.506;2022-12-05T09:05:29;39.08;;;17.63;;
62401;SDS011;48440;51.224;22.506;2022-12-05T09:07:54;35.75;;;16.83;;
62401;SDS011;48440;51.224;22.506;2022-12-05T09:10:20;43.95;;;18.73;;
62401;SDS011;48440;51.224;22.506;2022-12-05T09:12:45;36.67;;;16.80;;
62401;SDS011;48440;51.224;22.506;2022-12-05T09:15:11;40.97;;;18.73;;
62401;SDS011;48440;51.224;22.506;2022-12-05T09:17:37;37.30;;;16.02;;
62401;SDS011;48440;51.224;22.506;2022-12-05T09:20:04;39.05;;;16.77;;
62401;SDS011;48440;51.224;22.506;2022-12-05T09:22:30;38.63;;;18.17;;
62401;SDS011;48440;51.224;22.506;2022-12-05T09:24:57;38.78;;;17.65;;
62401;SDS011;48440;51.224;22.506;2022-12-05T09:27:24;42.78;;;19.00;;
62401;SDS011;48440;51.224;22.506;2022-12-05T09:29:51;44.55;;;17.00;;
62401;SDS011;48440;51.224;22.506;2022-12-05T09:32:16;34.97;;;17.05;;
62401;SDS011;48440;51.224;22.506;2022-12-05T09:34:42;37.97;;;16.55;;
62401;SDS011;48440;51.224;22.506;2022-12-05T09:37:07;48.78;;;17.42;;
62401;SDS011;48440;51.224;22.506;2022-12-05T09:39:33;45.08;;;19.20;;
62401;SDS011;48440;51.224;22.506;2022-12-05T09:42:03;40.13;;;18.60;;
62401;SDS011;48440;51.224;22.506;2022-12-05T09:58:01;40.22;;;17.33;;
62401;SDS011;48440;51.224;22.506;2022-12-05T10:00:29;36.15;;;17.77;;
62401;SDS011;48440;51.224;22.506;2022-12-05T10:05:46;38.92;;;18.08;;
62401;SDS011;48440;51.224;22.506;2022-12-05T10:11:01;38.17;;;18.45;;
62401;SDS011;48440;51.224;22.506;2022-12-05T10:16:46;38.60;;;17.10;;
62401;SDS011;48440;51.224;22.506;2022-12-05T10:19:17;39.40;;;18.60;;
62401;SDS011;48440;51.224;22.506;2022-12-05T10:21:54;34.80;;;17.23;;
62401;SDS011;48440;51.224;22.506;2022-12-05T10:24:32;39.85;;;17.45;;
62401;SDS011;48440;51.224;22.506;2022-12-05T10:27:05;36.63;;;17.13;;
62401;SDS011;48440;51.224;22.506;2022-12-05T10:32:21;39.53;;;18.02;;
62401;SDS011;48440;51.224;22.506;2022-12-05T10:34:54;41.63;;;18.92;;
62401;SDS011;48440;51.224;22.506;2022-12-05T10:37:47;39.70;;;17.92;;
62401;SDS011;48440;51.224;22.506;2022-12-05T10:40:15;35.58;;;17.23;;
62401;SDS011;48440;51.224;22.506;2022-12-05T10:42:41;35.22;;;17.33;;
62401;SDS011;48440;51.224;22.506;2022-12-05T10:45:12;41.65;;;18.17;;
62401;SDS011;48440;51.224;22.506;2022-12-05T10:47:43;37.53;;;17.35;;
62401;SDS011;48440;51.224;22.506;2022-12-05T10:50:23;35.97;;;17.90;;
62401;SDS011;48440;51.224;22.506;2022-12-05T10:52:54;37.88;;;17.60;;
62401;SDS011;48440;51.224;22.506;2022-12-05T10:55:22;39.38;;;17.65;;
62401;SDS011;48440;51.224;22.506;2022-12-05T11:00:42;44.60;;;18.90;;
62401;SDS011;48440;51.224;22.506;2022-12-05T11:03:29;42.10;;;19.75;;
62401;SDS011;48440;51.224;22.506;2022-12-05T11:05:59;39.65;;;18.25;;
62401;SDS011;48440;51.224;22.506;2022-12-05T11:08:27;41.70;;;18.23;;
62401;SDS011;48440;51.224;22.506;2022-12-05T11:11:04;38.97;;;18.30;;
62401;SDS011;48440;51.224;22.506;2022-12-05T11:13:32;36.22;;;17.55;;
62401;SDS011;48440;51.224;22.506;2022-12-05T11:15:58;39.60;;;18.70;;
62401;SDS011;48440;51.224;22.506;2022-12-05T11:18:29;36.88;;;17.45;;
62401;SDS011;48440;51.224;22.506;2022-12-05T11:21:07;36.75;;;18.58;;
62401;SDS011;48440;51.224;22.506;2022-12-05T11:23:34;37.65;;;18.40;;
62401;SDS011;48440;51.224;22.506;2022-12-05T11:26:00;36.67;;;17.25;;
62401;SDS011;48440;51.224;22.506;2022-12-05T11:28:30;36.17;;;18.90;;
62401;SDS011;48440;51.224;22.506;2022-12-05T11:31:02;41.28;;;17.75;;
62401;SDS011;48440;51.224;22.506;2022-12-05T11:33:31;35.13;;;16.92;;
62401;SDS011;48440;51.224;22.506;2022-12-05T11:36:12;37.30;;;18.20;;
62401;SDS011;48440;51.224;22.506;2022-12-05T11:38:40;36.28;;;16.88;;
62401;SDS011;48440;51.224;22.506;2022-12-05T11:54:31;38.60;;;17.52;;
62401;SDS011;48440;51.224;22.506;2022-12-05T11:57:09;46.83;;;18.58;;
62401;SDS011;48440;51.224;22.506;2022-12-05T12:00:04;37.95;;;18.58;;
62401;SDS011;48440;51.224;22.506;2022-12-05T12:13:39;40.00;;;18.50;;
62401;SDS011;48440;51.224;22.506;2022-12-05T12:30:08;36.20;;;16.77;;
62401;SDS011;48440;51.224;22.506;2022-12-05T12:33:08;35.92;;;16.08;;
62401;SDS011;48440;51.224;22.506;2022-12-05T12:46:54;33.97;;;16.63;;
62401;SDS011;48440;51.224;22.506;2022-12-05T12:49:32;33.33;;;16.30;;
62401;SDS011;48440;51.224;22.506;2022-12-05T12:52:01;33.38;;;16.27;;
62401;SDS011;48440;51.224;22.506;2022-12-05T12:57:28;32.58;;;15.95;;
62401;SDS011;48440;51.224;22.506;2022-12-05T13:03:15;33.50;;;17.30;;
62401;SDS011;48440;51.224;22.506;2022-12-05T13:05:49;35.15;;;17.30;;
62401;SDS011;48440;51.224;22.506;2022-12-05T13:11:26;35.80;;;16.63;;
62401;SDS011;48440;51.224;22.506;2022-12-05T13:13:57;35.30;;;16.08;;
62401;SDS011;48440;51.224;22.506;2022-12-05T13:16:27;34.10;;;15.95;;
62401;SDS011;48440;51.224;22.506;2022-12-05T13:18:56;38.28;;;18.02;;
62401;SDS011;48440;51.224;22.506;2022-12-05T13:21:22;39.50;;;17.00;;
62401;SDS011;48440;51.224;22.506;2022-12-05T13:23:51;34.65;;;16.15;;
62401;SDS011;48440;51.224;22.506;2022-12-05T13:26:19;36.35;;;17.45;;
62401;SDS011;48440;51.224;22.506;2022-12-05T13:31:13;34.95;;;17.02;;
62401;SDS011;48440;51.224;22.506;2022-12-05T13:36:12;42.00;;;17.60;;
62401;SDS011;48440;51.224;22.506;2022-12-05T13:39:06;37.78;;;16.67;;
62401;SDS011;48440;51.224;22.506;2022-12-05T13:42:00;37.42;;;17.30;;
62401;SDS011;48440;51.224;22.506;2022-12-05T13:44:52;41.40;;;17.00;;
62401;SDS011;48440;51.224;22.506;2022-12-05T13:47:28;38.00;;;17.08;;
62401;SDS011;48440;51.224;22.506;2022-12-05T13:50:02;36.42;;;16.55;;
62401;SDS011;48440;51.224;22.506;2022-12-05T13:52:31;37.15;;;17.90;;
62401;SDS011;48440;51.224;22.506;2022-12-05T14:07:40;37.20;;;17.77;;
62401;SDS011;48440;51.224;22.506;2022-12-05T14:10:08;32.95;;;16.38;;
62401;SDS011;48440;51.224;22.506;2022-12-05T14:12:48;32.05;;;16.75;;
62401;SDS011;48440;51.224;22.506;2022-12-05T14:26:06;37.67;;;15.55;;
62401;SDS011;48440;51.224;22.506;2022-12-05T14:34:30;39.72;;;16.50;;
62401;SDS011;48440;51.224;22.506;2022-12-05T14:40:00;35.95;;;17.05;;
62401;SDS011;48440;51.224;22.506;2022-12-05T14:44:52;38.00;;;17.27;;
62401;SDS011;48440;51.224;22.506;2022-12-05T14:47:27;33.53;;;17.58;;
62401;SDS011;48440;51.224;22.506;2022-12-05T14:52:26;31.65;;;15.35;;
62401;SDS011;48440;51.224;22.506;2022-12-05T14:54:59;35.92;;;15.57;;
62401;SDS011;48440;51.224;22.506;2022-12-05T14:57:30;31.67;;;14.70;;
62401;SDS011;48440;51.224;22.506;2022-12-05T15:00:00;31.35;;;15.23;;
62401;SDS011;48440;51.224;22.506;2022-12-05T15:02:36;33.08;;;15.80;;
62401;SDS011;48440;51.224;22.506;2022-12-05T15:05:22;30.67;;;15.65;;
62401;SDS011;48440;51.224;22.506;2022-12-05T15:07:52;37.05;;;17.35;;
62401;SDS011;48440;51.224;22.506;2022-12-05T15:13:20;34.33;;;16.27;;
62401;SDS011;48440;51.224;22.506;2022-12-05T15:16:06;32.15;;;15.32;;
62401;SDS011;48440;51.224;22.506;2022-12-05T15:18:50;37.42;;;16.50;;
62401;SDS011;48440;51.224;22.506;2022-12-05T15:24:17;33.80;;;15.70;;
62401;SDS011;48440;51.224;22.506;2022-12-05T15:26:46;37.83;;;17.30;;
62401;SDS011;48440;51.224;22.506;2022-12-05T15:29:15;33.78;;;15.80;;
62401;SDS011;48440;51.224;22.506;2022-12-05T15:31:59;33.83;;;16.10;;
62401;SDS011;48440;51.224;22.506;2022-12-05T15:34:40;32.45;;;16.45;;
62401;SDS011;48440;51.224;22.506;2022-12-05T15:37:09;39.95;;;16.38;;
62401;SDS011;48440;51.224;22.506;2022-12-05T15:42:20;34.60;;;15.77;;
62401;SDS011;48440;51.224;22.506;2022-12-05T15:44:48;34.28;;;17.05;;
62401;SDS011;48440;51.224;22.506;2022-12-05T15:47:21;34.55;;;15.60;;
62401;SDS011;48440;51.224;22.506;2022-12-05T15:49:48;34.58;;;17.48;;
62401;SDS011;48440;51.224;22.506;2022-12-05T15:57:34;29.67;;;14.82;;
62401;SDS011;48440;51.224;22.506;2022-12-05T16:00:05;32.50;;;15.65;;
62401;SDS011;48440;51.224;22.506;2022-12-05T16:02:47;33.92;;;16.98;;
62401;SDS011;48440;51.224;22.506;2022-12-05T16:05:27;32.72;;;15.18;;
62401;SDS011;48440;51.224;22.506;2022-12-05T16:07:59;33.40;;;16.88;;
62401;SDS011;48440;51.224;22.506;2022-12-05T16:10:30;36.03;;;16.98;;
62401;SDS011;48440;51.224;22.506;2022-12-05T16:13:00;31.15;;;15.10;;
62401;SDS011;48440;51.224;22.506;2022-12-05T16:15:31;29.88;;;15.00;;
62401;SDS011;48440;51.224;22.506;2022-12-05T16:17:58;34.30;;;16.52;;
62401;SDS011;48440;51.224;22.506;2022-12-05T16:22:57;35.47;;;16.80;;
62401;SDS011;48440;51.224;22.506;2022-12-05T16:25:27;37.53;;;16.88;;
62401;SDS011;48440;51.224;22.506;2022-12-05T16:30:28;37.33;;;16.98;;
62401;SDS011;48440;51.224;22.506;2022-12-05T16:33:14;34.55;;;15.82;;
62401;SDS011;48440;51.224;22.506;2022-12-05T16:35:41;34.22;;;17.17;;
62401;SDS011;48440;51.224;22.506;2022-12-05T16:45:56;30.95;;;15.63;;
62401;SDS011;48440;51.224;22.506;2022-12-05T16:48:31;32.67;;;15.27;;
62401;SDS011;48440;51.224;22.506;2022-12-05T16:53:35;30.85;;;15.05;;
62401;SDS011;48440;51.224;22.506;2022-12-05T16:56:02;28.50;;;15.38;;
62401;SDS011;48440;51.224;22.506;2022-12-05T16:58:29;30.27;;;15.80;;
62401;SDS011;48440;51.224;22.506;2022-12-05T17:01:04;30.58;;;15.07;;
62401;SDS011;48440;51.224;22.506;2022-12-05T17:03:31;31.98;;;14.43;;
62401;SDS011;48440;51.224;22.506;2022-12-05T17:05:57;31.13;;;14.80;;
62401;SDS011;48440;51.224;22.506;2022-12-05T17:08:23;33.42;;;15.20;;
62401;SDS011;48440;51.224;22.506;2022-12-05T17:10:49;33.20;;;15.82;;
62401;SDS011;48440;51.224;22.506;2022-12-05T17:13:15;34.70;;;15.82;;
62401;SDS011;48440;51.224;22.506;2022-12-05T17:15:42;33.90;;;15.98;;
62401;SDS011;48440;51.224;22.506;2022-12-05T17:18:14;33.03;;;15.65;;
62401;SDS011;48440;51.224;22.506;2022-12-05T17:20:42;33.28;;;16.67;;
62401;SDS011;48440;51.224;22.506;2022-12-05T17:23:10;33.10;;;16.60;;
62401;SDS011;48440;51.224;22.506;2022-12-05T17:25:37;35.53;;;16.88;;
62401;SDS011;48440;51.224;22.506;2022-12-05T17:28:05;30.42;;;16.15;;
62401;SDS011;48440;51.224;22.506;2022-12-05T17:30:30;31.92;;;15.95;;
62401;SDS011;48440;51.224;22.506;2022-12-05T17:32:58;34.38;;;15.38;;
62401;SDS011;48440;51.224;22.506;2022-12-05T17:35:27;33.15;;;16.33;;
62401;SDS011;48440;51.224;22.506;2022-12-05T17:37:53;33.13;;;16.00;;
62401;SDS011;48440;51.224;22.506;2022-12-05T17:40:18;35.15;;;16.38;;
62401;SDS011;48440;51.224;22.506;2022-12-05T17:42:44;39.90;;;17.52;;
62401;SDS011;48440;51.224;22.506;2022-12-05T17:45:10;35.90;;;17.13;;
62401;SDS011;48440;51.224;22.506;2022-12-05T17:47:38;34.08;;;16.92;;
62401;SDS011;48440;51.224;22.506;2022-12-05T17:50:04;31.85;;;16.23;;
62401;SDS011;48440;51.224;22.506;2022-12-05T17:52:30;35.10;;;16.77;;